Time;durP1;ratioP1;P1;durP2;ratioP2;P2;SDS_P1;SDS_P2;PMS_P1;PMS_P2;Temp;Humidity;BMP_temperature;BMP_pressure;BME280_temperature;BME280_humidity;BME280_pressure;Samples;Min_cycle;Max_cycle;Signal;HPM_P1;HPM_P2
2021/01/22 00:01:46;;;;;;;1.98;1.20;;;9.00;45.50;;;;;;6040360;23;20206;-66
2021/01/22 00:04:15;;;;;;;2.20;1.08;;;9.00;45.40;;;;;;6040361;23;20602;-67
2021/01/22 00:06:44;;;;;;;2.33;1.25;;;9.00;45.30;;;;;;6040232;23;20167;-67
2021/01/22 00:09:12;;;;;;;2.30;1.00;;;9.00;45.20;;;;;;6039896;23;20306;-66
2021/01/22 00:11:39;;;;;;;2.25;1.30;;;9.00;45.10;;;;;;6040336;23;20175;-66
2021/01/22 00:14:12;;;;;;;2.65;1.23;;;9.00;44.90;;;;;;6040384;23;20223;-66
2021/01/22 00:16:41;;;;;;;2.97;1.70;;;8.90;44.70;;;;;;6040554;23;20472;-66
2021/01/22 00:19:11;;;;;;;2.35;1.02;;;8.90;44.70;;;;;;6039965;23;20230;-66
2021/01/22 00:21:42;;;;;;;2.42;1.30;;;8.90;44.80;;;;;;6040448;23;20489;-66
2021/01/22 00:24:12;;;;;;;2.90;1.60;;;8.90;44.90;;;;;;6040465;23;20590;-67
2021/01/22 00:26:40;;;;;;;3.60;1.70;;;8.90;45.30;;;;;;6039661;23;20626;-67
2021/01/22 00:29:09;;;;;;;2.60;1.23;;;8.80;45.30;;;;;;6039862;23;20614;-69
2021/01/22 00:31:37;;;;;;;4.63;2.08;;;8.80;45.50;;;;;;6040024;23;20185;-67
2021/01/22 00:34:08;;;;;;;3.95;2.00;;;8.70;45.70;;;;;;6040198;23;20250;-66
2021/01/22 00:36:40;;;;;;;2.83;1.80;;;8.70;46.10;;;;;;6040779;23;20166;-66
2021/01/22 00:39:07;;;;;;;2.70;1.80;;;8.70;46.20;;;;;;6039912;23;20158;-66
2021/01/22 00:41:35;;;;;;;2.88;1.45;;;8.60;46.40;;;;;;6039974;23;20762;-66
2021/01/22 00:44:03;;;;;;;2.05;1.20;;;8.60;46.70;;;;;;6039614;23;20177;-67
2021/01/22 00:46:32;;;;;;;3.33;2.00;;;8.60;46.70;;;;;;6040177;23;20225;-67
2021/01/22 00:49:04;;;;;;;2.17;1.52;;;8.60;47.10;;;;;;6040314;23;20218;-67
2021/01/22 00:51:33;;;;;;;2.80;1.33;;;8.50;47.40;;;;;;6039679;23;20619;-67
2021/01/22 00:54:02;;;;;;;2.90;1.95;;;8.40;47.30;;;;;;6039592;23;20519;-68
2021/01/22 00:56:29;;;;;;;2.72;1.75;;;8.40;47.40;;;;;;6038949;23;20649;-71
2021/01/22 00:58:57;;;;;;;3.22;1.52;;;8.30;47.70;;;;;;6039484;23;20178;-69
2021/01/22 01:01:24;;;;;;;3.95;1.92;;;8.20;48.00;;;;;;6039743;23;20220;-70
2021/01/22 01:03:52;;;;;;;2.45;1.65;;;8.10;48.30;;;;;;6039662;23;20171;-69
2021/01/22 01:06:24;;;;;;;3.13;1.92;;;8.00;48.60;;;;;;6039822;23;20178;-68
2021/01/22 01:08:52;;;;;;;3.63;1.75;;;8.10;48.50;;;;;;6040258;23;20486;-69
2021/01/22 01:11:19;;;;;;;3.35;1.42;;;8.10;48.50;;;;;;6040108;23;20175;-69
2021/01/22 01:13:47;;;;;;;3.78;1.85;;;8.00;48.50;;;;;;6039267;23;20175;-69
2021/01/22 01:16:18;;;;;;;4.10;1.95;;;8.00;48.60;;;;;;6039608;23;20180;-69
2021/01/22 01:18:45;;;;;;;3.88;1.60;;;8.00;49.10;;;;;;6039229;23;20618;-68
2021/01/22 01:21:16;;;;;;;3.13;2.20;;;8.10;48.50;;;;;;6039572;23;20170;-69
2021/01/22 01:23:44;;;;;;;2.60;1.40;;;8.10;48.50;;;;;;6040129;23;20217;-68
2021/01/22 01:26:15;;;;;;;3.90;1.45;;;8.10;48.50;;;;;;6039619;23;20652;-69
2021/01/22 01:28:44;;;;;;;2.78;1.70;;;8.10;48.60;;;;;;6040061;23;20163;-68
2021/01/22 01:31:12;;;;;;;2.90;1.52;;;8.10;48.80;;;;;;6039737;23;20176;-70
2021/01/22 01:33:39;;;;;;;3.45;1.40;;;8.00;49.00;;;;;;6039649;23;20649;-68
2021/01/22 01:36:22;;;;;;;2.80;1.60;;;8.00;48.90;;;;;;6039837;23;20209;-69
2021/01/22 01:38:50;;;;;;;2.67;1.80;;;8.00;49.20;;;;;;6039993;23;20159;-68
2021/01/22 01:41:19;;;;;;;2.53;1.70;;;7.90;49.40;;;;;;6039259;23;20241;-68
2021/01/22 01:43:46;;;;;;;3.10;1.63;;;7.70;50.20;;;;;;6039395;23;20217;-69
2021/01/22 01:46:12;;;;;;;2.45;1.42;;;7.60;50.70;;;;;;6039363;23;20209;-69
2021/01/22 01:48:41;;;;;;;2.88;1.75;;;7.50;50.80;;;;;;6039408;23;20645;-68
2021/01/22 01:51:07;;;;;;;2.70;1.58;;;7.50;51.40;;;;;;6039724;23;20221;-68
2021/01/22 01:53:34;;;;;;;3.08;1.88;;;7.40;51.50;;;;;;6039783;23;20170;-69
2021/01/22 01:56:02;;;;;;;5.63;3.00;;;7.40;51.90;;;;;;6039743;23;20519;-68
2021/01/22 01:58:30;;;;;;;3.25;2.17;;;7.20;52.30;;;;;;6039832;23;20194;-68
2021/01/22 02:00:57;;;;;;;2.55;1.50;;;7.10;52.70;;;;;;6039383;23;20201;-68
2021/01/22 02:03:24;;;;;;;2.75;1.75;;;7.10;52.90;;;;;;6039633;23;20277;-69
2021/01/22 02:05:55;;;;;;;4.93;2.80;;;7.00;52.80;;;;;;6039835;23;20202;-67
2021/01/22 02:08:32;;;;;;;3.78;1.80;;;6.90;53.10;;;;;;6039383;23;20629;-67
2021/01/22 02:11:07;;;;;;;3.75;2.15;;;6.90;53.10;;;;;;6039856;23;20158;-68
2021/01/22 02:13:36;;;;;;;2.85;1.73;;;6.90;53.10;;;;;;6039360;23;20237;-68
2021/01/22 02:16:03;;;;;;;3.83;2.13;;;7.00;53.10;;;;;;6039507;23;20189;-68
2021/01/22 02:18:30;;;;;;;6.80;1.90;;;7.00;53.20;;;;;;6039719;23;20242;-68
2021/01/22 02:21:09;;;;;;;3.45;1.77;;;7.00;53.50;;;;;;6039875;23;20201;-67
2021/01/22 02:23:47;;;;;;;6.00;2.40;;;7.00;53.50;;;;;;6039634;23;20229;-68
2021/01/22 02:26:52;;;;;;;5.82;3.55;;;7.00;53.50;;;;;;6039196;23;20174;-68
2021/01/22 02:29:27;;;;;;;5.30;3.15;;;7.00;53.70;;;;;;6011032;23;20170;-67
2021/01/22 02:31:56;;;;;;;4.95;2.70;;;6.90;54.10;;;;;;6039561;23;20154;-69
2021/01/22 02:34:26;;;;;;;3.38;2.00;;;6.70;54.80;;;;;;6039823;23;20242;-68
2021/01/22 02:36:59;;;;;;;4.03;1.98;;;6.50;55.20;;;;;;6039229;23;20171;-68
2021/01/22 02:39:34;;;;;;;4.85;1.77;;;6.40;55.30;;;;;;6039146;23;20199;-69
2021/01/22 02:42:02;;;;;;;2.88;1.52;;;6.40;55.40;;;;;;6039612;23;20658;-68
2021/01/22 02:44:30;;;;;;;3.40;1.67;;;6.50;55.40;;;;;;6039534;23;20198;-68
2021/01/22 02:47:06;;;;;;;2.28;1.33;;;6.60;55.80;;;;;;6039128;23;20637;-68
2021/01/22 02:49:33;;;;;;;3.20;1.50;;;6.60;56.20;;;;;;6039989;23;20158;-67
2021/01/22 02:51:59;;;;;;;6.32;2.30;;;6.50;55.70;;;;;;6041370;23;20203;-68
2021/01/22 02:54:27;;;;;;;6.22;2.67;;;6.50;55.70;;;;;;6041323;23;20254;-68
2021/01/22 02:57:05;;;;;;;4.10;2.35;;;6.50;56.00;;;;;;6041431;23;20166;-68
2021/01/22 02:59:44;;;;;;;5.32;3.25;;;6.50;56.20;;;;;;6041389;23;20266;-68
2021/01/22 03:02:19;;;;;;;3.83;2.40;;;6.50;56.30;;;;;;6040502;23;20202;-68
2021/01/22 03:04:47;;;;;;;4.35;2.65;;;6.40;56.40;;;;;;6041234;23;20210;-68
2021/01/22 03:07:25;;;;;;;5.18;2.33;;;6.40;56.30;;;;;;6041236;23;20206;-67
2021/01/22 03:09:56;;;;;;;5.43;2.30;;;6.40;56.70;;;;;;6041412;23;20237;-67
2021/01/22 03:12:23;;;;;;;3.28;2.05;;;6.40;56.60;;;;;;6041665;23;20162;-68
2021/01/22 03:14:52;;;;;;;6.43;2.40;;;6.50;56.60;;;;;;6040823;23;20174;-68
2021/01/22 03:17:24;;;;;;;4.95;2.40;;;6.50;56.60;;;;;;6040990;23;20166;-68
2021/01/22 03:19:51;;;;;;;7.85;3.10;;;6.50;57.10;;;;;;6040669;23;20607;-68
2021/01/22 03:22:20;;;;;;;2.88;2.05;;;6.50;57.00;;;;;;6040926;23;20229;-68
2021/01/22 03:24:46;;;;;;;3.35;1.73;;;6.50;56.90;;;;;;6040969;23;20250;-68
2021/01/22 03:27:15;;;;;;;3.25;1.83;;;6.60;57.10;;;;;;6041103;23;20171;-68
2021/01/22 03:29:43;;;;;;;4.15;2.13;;;6.60;57.00;;;;;;6040906;23;20216;-68
2021/01/22 03:32:15;;;;;;;3.58;1.70;;;6.60;57.10;;;;;;6040863;23;20170;-67
2021/01/22 03:34:42;;;;;;;3.22;1.42;;;6.60;57.10;;;;;;6040539;23;20159;-68
2021/01/22 03:37:13;;;;;;;2.00;1.20;;;6.60;57.30;;;;;;6040950;23;20166;-68
2021/01/22 03:39:45;;;;;;;2.55;1.42;;;6.70;57.50;;;;;;6040917;23;20166;-68
2021/01/22 03:42:13;;;;;;;2.20;1.25;;;6.80;58.00;;;;;;6040489;23;20217;-68
2021/01/22 03:44:44;;;;;;;2.20;1.60;;;6.80;58.00;;;;;;6040792;23;20218;-68
2021/01/22 03:47:13;;;;;;;1.88;0.98;;;7.00;58.20;;;;;;6040767;23;20159;-68
2021/01/22 03:49:41;;;;;;;2.90;1.60;;;7.10;58.20;;;;;;6040389;23;20171;-67
2021/01/22 03:52:07;;;;;;;3.20;1.70;;;7.10;58.20;;;;;;6040773;23;20202;-68
2021/01/22 03:54:39;;;;;;;15.77;2.03;;;7.20;58.10;;;;;;6040688;23;20177;-68
2021/01/22 03:57:07;;;;;;;1.90;1.25;;;7.30;58.10;;;;;;6040312;23;20169;-68
2021/01/22 03:59:37;;;;;;;2.00;1.10;;;7.30;58.60;;;;;;6040608;23;20171;-68
2021/01/22 04:02:05;;;;;;;2.33;1.30;;;7.30;58.50;;;;;;6040217;23;20202;-68
2021/01/22 04:04:32;;;;;;;2.28;1.35;;;7.40;58.60;;;;;;6040365;23;20178;-67
2021/01/22 04:07:00;;;;;;;2.33;1.45;;;7.40;58.50;;;;;;6040710;23;20178;-68
2021/01/22 04:09:29;;;;;;;2.20;1.20;;;7.40;58.30;;;;;;6040528;23;20201;-68
2021/01/22 04:11:58;;;;;;;1.90;1.00;;;7.40;58.00;;;;;;6040571;23;20253;-69
2021/01/22 04:14:29;;;;;;;2.28;1.40;;;7.40;58.00;;;;;;6040283;23;20209;-68
2021/01/22 04:16:59;;;;;;;1.80;1.10;;;7.40;58.30;;;;;;6040540;23;20155;-69
2021/01/22 04:19:29;;;;;;;4.20;1.75;;;7.40;58.50;;;;;;6040596;23;20496;-68
2021/01/22 04:22:01;;;;;;;3.80;1.00;;;7.40;58.70;;;;;;6040046;23;20194;-68
2021/01/22 04:24:28;;;;;;;2.75;1.50;;;7.40;58.70;;;;;;6040712;23;20190;-68
2021/01/22 04:26:55;;;;;;;2.22;1.10;;;7.50;59.10;;;;;;6040601;23;20166;-69
2021/01/22 04:29:32;;;;;;;1.90;1.20;;;7.40;59.00;;;;;;6040557;23;20542;-68
2021/01/22 04:32:00;;;;;;;2.20;1.30;;;7.50;58.70;;;;;;6039915;23;20599;-68
2021/01/22 04:34:31;;;;;;;3.75;1.75;;;7.50;58.50;;;;;;6040540;23;20250;-68
2021/01/22 04:36:59;;;;;;;5.80;2.65;;;7.60;58.50;;;;;;6040013;23;20163;-68
2021/01/22 04:39:27;;;;;;;2.75;2.00;;;7.60;58.40;;;;;;6040597;23;20561;-68
2021/01/22 04:41:54;;;;;;;2.35;1.00;;;7.60;58.70;;;;;;6039859;23;20226;-70
2021/01/22 04:44:20;;;;;;;2.13;1.00;;;7.60;58.90;;;;;;6040544;23;20174;-67
2021/01/22 04:46:48;;;;;;;1.95;1.25;;;7.50;58.30;;;;;;6040276;23;20230;-68
2021/01/22 04:49:15;;;;;;;1.60;1.08;;;7.40;58.30;;;;;;6040417;23;20167;-68
2021/01/22 04:51:46;;;;;;;2.42;1.15;;;7.40;58.50;;;;;;6040220;23;20168;-68
2021/01/22 04:54:23;;;;;;;3.15;2.22;;;7.30;58.20;;;;;;6040083;23;20193;-68
2021/01/22 04:56:55;;;;;;;2.40;1.48;;;7.30;58.70;;;;;;6040144;23;20201;-68
2021/01/22 04:59:30;;;;;;;2.63;1.20;;;7.30;58.90;;;;;;6040539;23;20170;-68
2021/01/22 05:02:00;;;;;;;3.58;1.90;;;7.30;59.50;;;;;;6040267;23;20543;-68
2021/01/22 05:04:27;;;;;;;3.08;1.92;;;7.20;59.80;;;;;;6040114;23;20182;-68
2021/01/22 05:06:54;;;;;;;2.10;1.33;;;7.20;60.40;;;;;;6040132;23;20203;-69
2021/01/22 05:09:26;;;;;;;2.70;1.60;;;7.30;59.90;;;;;;6040133;23;20225;-68
2021/01/22 05:12:08;;;;;;;3.35;1.88;;;7.30;59.60;;;;;;6039728;23;20628;-67
2021/01/22 05:14:40;;;;;;;2.50;1.40;;;7.20;59.60;;;;;;6039713;23;20677;-68
2021/01/22 05:17:08;;;;;;;3.55;1.48;;;7.10;59.60;;;;;;6039980;23;20194;-68
2021/01/22 05:19:39;;;;;;;2.38;1.38;;;7.10;59.60;;;;;;6040010;23;20174;-68
2021/01/22 05:22:13;;;;;;;3.85;1.95;;;7.00;59.60;;;;;;6039515;23;20657;-68
2021/01/22 05:24:45;;;;;;;2.63;1.73;;;7.00;59.80;;;;;;6039619;23;20166;-67
2021/01/22 05:27:14;;;;;;;3.03;1.85;;;6.90;59.90;;;;;;6040118;23;20155;-68
2021/01/22 05:29:43;;;;;;;2.92;2.00;;;6.90;59.50;;;;;;6039982;23;20190;-68
2021/01/22 05:32:26;;;;;;;9.43;5.38;;;6.80;59.30;;;;;;6039462;23;20202;-68
2021/01/22 05:35:16;;;;;;;4.10;2.40;;;6.70;59.70;;;;;;6039603;23;20159;-67
2021/01/22 05:37:52;;;;;;;4.85;2.10;;;6.70;59.60;;;;;;6024999;23;20166;-68
2021/01/22 05:40:20;;;;;;;2.90;1.75;;;6.50;59.90;;;;;;6039394;23;20640;-68
2021/01/22 05:42:52;;;;;;;2.15;1.40;;;6.30;60.50;;;;;;6039352;23;20236;-68
2021/01/22 05:45:39;;;;;;;2.65;1.80;;;6.30;60.90;;;;;;6039613;23;20606;-68
2021/01/22 05:48:17;;;;;;;3.70;1.80;;;6.20;60.60;;;;;;6039869;23;20468;-67
2021/01/22 05:50:54;;;;;;;5.22;3.20;;;6.20;60.50;;;;;;6039545;23;20201;-68
2021/01/22 05:53:23;;;;;;;5.03;2.80;;;6.20;60.60;;;;;;6039789;23;20539;-68
2021/01/22 05:56:08;;;;;;;4.80;2.70;;;6.20;60.50;;;;;;6039755;23;20174;-68
2021/01/22 05:58:35;;;;;;;4.78;2.30;;;6.10;60.50;;;;;;6040306;23;20460;-68
2021/01/22 06:01:10;;;;;;;3.63;2.15;;;6.10;60.70;;;;;;6039264;23;20224;-68
2021/01/22 06:03:45;;;;;;;50.17;31.65;;;6.10;60.90;;;;;;6038357;23;20239;-68
2021/01/22 06:06:18;;;;;;;9.25;6.30;;;6.10;61.00;;;;;;6038462;23;20170;-70
2021/01/22 06:08:49;;;;;;;160.45;52.88;;;6.00;60.30;;;;;;6038512;23;20159;-67
2021/01/22 06:11:22;;;;;;;164.93;56.80;;;5.90;60.70;;;;;;6035498;23;20209;-68
2021/01/22 06:14:00;;;;;;;61.42;26.20;;;5.80;61.00;;;;;;6038422;23;20163;-68
2021/01/22 06:16:34;;;;;;;52.88;25.50;;;5.70;62.40;;;;;;6033931;23;20165;-68
2021/01/22 06:19:05;;;;;;;65.35;23.75;;;5.60;63.20;;;;;;6037152;23;20598;-68
2021/01/22 06:21:35;;;;;;;76.57;31.17;;;5.60;62.70;;;;;;6037604;23;20170;-68
2021/01/22 06:24:09;;;;;;;70.82;28.13;;;5.60;62.50;;;;;;6037746;23;20535;-70
2021/01/22 06:26:40;;;;;;;19.63;9.50;;;5.60;62.60;;;;;;6039070;23;20170;-70
2021/01/22 06:29:12;;;;;;;11.98;4.88;;;5.50;62.80;;;;;;6038748;23;20218;-69
2021/01/22 06:31:39;;;;;;;7.47;4.65;;;5.50;63.90;;;;;;6039696;23;20155;-69
2021/01/22 06:34:12;;;;;;;5.70;2.50;;;5.50;63.10;;;;;;6039361;23;20228;-70
2021/01/22 06:36:45;;;;;;;3.63;2.03;;;5.50;63.10;;;;;;6039526;23;20210;-68
2021/01/22 06:39:14;;;;;;;4.65;2.10;;;5.50;62.80;;;;;;6038987;23;20158;-68
2021/01/22 06:41:43;;;;;;;3.38;2.47;;;5.50;62.80;;;;;;6039416;23;20170;-68
2021/01/22 06:44:20;;;;;;;3.78;2.20;;;5.50;63.00;;;;;;6039241;23;20178;-67
2021/01/22 06:46:49;;;;;;;7.00;3.17;;;5.50;62.70;;;;;;6039283;23;20170;-67
2021/01/22 06:49:31;;;;;;;5.90;3.65;;;5.50;61.60;;;;;;6039568;23;20468;-67
2021/01/22 06:52:10;;;;;;;8.05;3.88;;;5.40;60.40;;;;;;6039674;23;20201;-68
2021/01/22 06:55:02;;;;;;;9.50;4.60;;;5.30;60.40;;;;;;6038936;23;20162;-67
2021/01/22 06:57:29;;;;;;;10.35;5.05;;;5.20;61.10;;;;;;6038920;23;20159;-67
2021/01/22 06:59:59;;;;;;;8.38;4.88;;;5.20;61.30;;;;;;6039065;23;20531;-68
2021/01/22 07:02:40;;;;;;;14.40;5.78;;;5.10;61.60;;;;;;6009116;23;662299;-68
2021/01/22 07:05:43;;;;;;;11.38;5.90;;;5.10;62.00;;;;;;6038243;23;20218;-67
2021/01/22 07:08:11;;;;;;;10.18;5.80;;;5.10;62.00;;;;;;6033861;23;20193;-68
2021/01/22 07:11:03;;;;;;;9.02;4.75;;;5.10;62.20;;;;;;6036791;23;20174;-67
2021/01/22 07:13:46;;;;;;;8.20;5.43;;;5.10;63.00;;;;;;6040058;23;20177;-71
2021/01/22 07:16:32;;;;;;;9.68;5.50;;;5.10;62.80;;;;;;6040583;23;20177;-68
2021/01/22 07:19:09;;;;;;;9.30;5.53;;;5.20;63.30;;;;;;6040625;23;20241;-67
2021/01/22 07:21:44;;;;;;;10.55;6.60;;;5.30;63.80;;;;;;6040305;23;20165;-67
2021/01/22 07:24:18;;;;;;;9.45;5.50;;;5.60;63.90;;;;;;6041031;23;20154;-67
2021/01/22 07:27:15;;;;;;;11.88;7.88;;;5.80;63.70;;;;;;6040771;23;20547;-67
2021/01/22 07:30:03;;;;;;;8.02;5.32;;;6.10;63.80;;;;;;6040997;23;20171;-67
2021/01/22 07:32:41;;;;;;;6.13;4.53;;;6.40;62.60;;;;;;6039963;23;20513;-67
2021/01/22 07:35:20;;;;;;;9.90;5.75;;;6.60;60.00;;;;;;6040438;23;20158;-67
2021/01/22 07:37:48;;;;;;;8.27;5.75;;;6.50;56.70;;;;;;6040772;23;20165;-67
2021/01/22 07:40:18;;;;;;;8.25;5.60;;;6.50;57.20;;;;;;6040998;23;20166;-67
2021/01/22 07:42:55;;;;;;;10.82;5.50;;;6.70;57.60;;;;;;6040713;23;21148;-67
2021/01/22 07:45:39;;;;;;;8.43;4.80;;;6.90;55.60;;;;;;6039934;23;20214;-67
2021/01/22 07:48:09;;;;;;;10.82;4.47;;;7.00;55.00;;;;;;6040446;23;20628;-68
2021/01/22 07:50:38;;;;;;;6.28;3.75;;;6.80;55.30;;;;;;6040716;23;20502;-68
2021/01/22 07:53:17;;;;;;;7.38;4.30;;;6.90;56.50;;;;;;6040744;23;20189;-67
2021/01/22 07:55:52;;;;;;;7.82;3.92;;;7.10;56.10;;;;;;6039571;23;20162;-68
2021/01/22 07:58:19;;;;;;;5.60;3.92;;;7.40;56.00;;;;;;6040481;23;20166;-68
2021/01/22 08:00:46;;;;;;;8.70;5.10;;;7.60;56.40;;;;;;6039938;23;20198;-68
2021/01/22 08:03:15;;;;;;;12.05;7.50;;;8.00;56.00;;;;;;6040529;23;20230;-68
2021/01/22 08:05:48;;;;;;;8.77;5.28;;;8.30;54.70;;;;;;6040616;23;20167;-68
2021/01/22 08:08:23;;;;;;;16.55;8.05;;;8.60;55.50;;;;;;6040725;23;20182;-68
2021/01/22 08:11:18;;;;;;;11.93;7.70;;;8.80;54.50;;;;;;6039593;23;20166;-67
2021/01/22 08:13:54;;;;;;;7.28;5.50;;;9.20;55.00;;;;;;6040384;23;20170;-67
2021/01/22 08:19:24;;;;;;;5.45;3.83;;;9.60;51.20;;;;;;6040036;23;20349;-68
2021/01/22 08:21:53;;;;;;;6.80;5.78;;;9.90;52.00;;;;;;6040199;23;20158;-67
2021/01/22 08:24:20;;;;;;;6.75;3.25;;;10.20;50.10;;;;;;6040054;23;20171;-68
2021/01/22 08:26:58;;;;;;;10.57;7.20;;;10.40;48.20;;;;;;6040073;23;20190;-67
2021/01/22 08:29:27;;;;;;;6.80;4.97;;;10.60;49.00;;;;;;6040294;23;20158;-68
2021/01/22 08:32:10;;;;;;;7.47;4.82;;;10.80;48.00;;;;;;6040293;23;20242;-68
2021/01/22 08:34:41;;;;;;;7.25;4.45;;;11.00;48.20;;;;;;6040033;23;20175;-68
2021/01/22 08:37:08;;;;;;;4.30;3.25;;;11.30;46.80;;;;;;6040532;23;20154;-67
2021/01/22 08:39:51;;;;;;;4.75;3.47;;;11.60;46.50;;;;;;6039865;23;20227;-68
2021/01/22 08:42:24;;;;;;;3.25;2.70;;;12.00;46.20;;;;;;6039645;23;20193;-68
2021/01/22 08:44:59;;;;;;;5.68;3.58;;;12.30;44.90;;;;;;6039782;23;20163;-68
2021/01/22 08:47:32;;;;;;;3.83;2.60;;;12.80;44.30;;;;;;6038729;23;20274;-69
2021/01/22 08:50:01;;;;;;;4.15;3.38;;;13.30;44.70;;;;;;6036812;23;20658;-69
2021/01/22 08:52:33;;;;;;;5.65;3.70;;;13.70;44.80;;;;;;6039512;23;20250;-69
2021/01/22 08:55:03;;;;;;;4.75;3.72;;;14.20;44.50;;;;;;6039241;23;20158;-69
2021/01/22 08:57:32;;;;;;;6.85;3.80;;;14.60;41.50;;;;;;6039322;23;20178;-70
2021/01/22 09:00:14;;;;;;;6.40;4.72;;;15.00;41.30;;;;;;6039544;23;20177;-69
2021/01/22 09:02:42;;;;;;;5.40;3.90;;;15.40;40.60;;;;;;6038309;23;20194;-68
2021/01/22 09:05:16;;;;;;;6.97;4.43;;;15.80;37.60;;;;;;6040135;23;20249;-68
2021/01/22 09:07:47;;;;;;;5.10;3.80;;;16.10;37.90;;;;;;6039806;23;20154;-68
2021/01/22 09:10:30;;;;;;;3.60;2.85;;;16.20;37.80;;;;;;6033378;23;20886;-69
2021/01/22 09:13:15;;;;;;;3.63;2.40;;;16.60;35.60;;;;;;6031285;23;20186;-70
2021/01/22 09:16:04;;;;;;;7.30;3.20;;;16.90;36.10;;;;;;6034099;23;20392;-70
2021/01/22 09:18:36;;;;;;;3.20;2.37;;;17.30;35.90;;;;;;6038110;23;20895;-68
2021/01/22 09:21:18;;;;;;;4.20;2.87;;;17.70;34.90;;;;;;6034558;23;21198;-69
2021/01/22 09:23:47;;;;;;;4.03;3.30;;;17.60;32.20;;;;;;6037935;23;20521;-71
2021/01/22 09:26:25;;;;;;;5.17;3.27;;;17.40;32.40;;;;;;6036310;23;20403;-69
2021/01/22 09:29:01;;;;;;;4.60;2.73;;;17.40;33.10;;;;;;6038090;23;20385;-69
2021/01/22 09:31:27;;;;;;;3.37;2.23;;;17.80;31.50;;;;;;6035578;23;20403;-70
2021/01/22 09:33:54;;;;;;;3.60;2.30;;;18.20;31.80;;;;;;6036672;23;20403;-69
2021/01/22 09:36:22;;;;;;;3.80;2.17;;;18.60;31.30;;;;;;6037278;23;20441;-69
2021/01/22 09:38:57;;;;;;;4.40;2.13;;;18.90;30.50;;;;;;6035515;23;20407;-70
2021/01/22 09:41:24;;;;;;;2.93;1.67;;;19.20;30.70;;;;;;6037738;23;20818;-70
2021/01/22 09:43:56;;;;;;;3.60;2.00;;;19.50;30.20;;;;;;6036736;23;20446;-69
2021/01/22 09:46:23;;;;;;;3.70;2.27;;;19.50;29.10;;;;;;6038163;23;20434;-69
2021/01/22 09:48:50;;;;;;;4.53;2.50;;;19.20;28.80;;;;;;6036618;23;20402;-70
2021/01/22 09:51:16;;;;;;;6.97;3.40;;;19.00;29.40;;;;;;6035747;23;20403;-68
2021/01/22 09:53:44;;;;;;;7.33;3.70;;;19.10;29.60;;;;;;6036451;23;20411;-68
2021/01/22 09:56:11;;;;;;;6.53;3.83;;;19.40;29.30;;;;;;6035350;23;20928;-69
2021/01/22 09:58:38;;;;;;;7.17;3.33;;;19.70;28.60;;;;;;6037407;23;20688;-68
2021/01/22 10:01:05;;;;;;;4.03;2.90;;;20.10;28.80;;;;;;6035978;23;20431;-69
2021/01/22 10:03:32;;;;;;;5.93;2.27;;;20.40;27.90;;;;;;6034067;23;20450;-69
2021/01/22 10:05:59;;;;;;;4.07;2.17;;;20.80;27.60;;;;;;6036990;23;20473;-70
2021/01/22 10:08:25;;;;;;;3.90;1.90;;;21.30;27.50;;;;;;6034710;23;20470;-69
2021/01/22 10:10:53;;;;;;;3.50;2.00;;;21.50;26.50;;;;;;6038416;23;20407;-68
2021/01/22 10:13:28;;;;;;;9.60;7.60;;;21.50;26.10;;;;;;6035295;23;20937;-69
2021/01/22 10:15:57;;;;;;;6.73;5.70;;;21.10;26.20;;;;;;6037012;23;20422;-68
2021/01/22 10:18:27;;;;;;;5.40;2.40;;;21.20;27.00;;;;;;6036574;23;20410;-69
2021/01/22 10:20:54;;;;;;;5.50;4.50;;;21.40;26.30;;;;;;6035935;23;20410;-67
2021/01/22 10:23:21;;;;;;;3.77;2.97;;;21.40;26.20;;;;;;6037393;23;20451;-69
2021/01/22 10:25:48;;;;;;;6.10;2.00;;;21.60;26.70;;;;;;6035352;23;20411;-70
2021/01/22 10:28:15;;;;;;;2.90;2.13;;;21.50;25.50;;;;;;6038276;23;20809;-67
2021/01/22 10:30:44;;;;;;;2.53;1.90;;;21.60;26.50;;;;;;6035185;23;20414;-68
2021/01/22 10:33:10;;;;;;;3.70;2.70;;;21.70;25.30;;;;;;6036632;23;20490;-67
2021/01/22 10:35:37;;;;;;;6.03;3.83;;;21.30;25.50;;;;;;6036575;23;20459;-69
2021/01/22 10:38:06;;;;;;;3.07;1.80;;;21.40;25.80;;;;;;6035957;23;20903;-68
2021/01/22 10:40:32;;;;;;;3.27;1.77;;;21.80;25.50;;;;;;6037994;23;20461;-69
2021/01/22 10:43:05;;;;;;;2.70;1.63;;;22.20;25.70;;;;;;6035963;23;20443;-69
2021/01/22 10:45:32;;;;;;;4.63;2.50;;;22.60;24.90;;;;;;6036277;23;20403;-69
2021/01/22 10:47:59;;;;;;;2.20;1.43;;;22.80;24.90;;;;;;6036445;23;20409;-69
2021/01/22 10:50:26;;;;;;;2.40;1.53;;;22.90;25.30;;;;;;6035236;23;20459;-68
2021/01/22 10:52:52;;;;;;;2.97;1.60;;;23.10;25.20;;;;;;6035694;23;20454;-69
2021/01/22 10:55:19;;;;;;;2.97;1.70;;;23.20;24.90;;;;;;6038748;23;20451;-70
2021/01/22 10:57:46;;;;;;;2.73;1.67;;;23.30;24.80;;;;;;6039177;23;20403;-68
2021/01/22 11:00:13;;;;;;;2.93;1.40;;;23.40;24.40;;;;;;6039019;23;20399;-68
2021/01/22 11:02:41;;;;;;;3.27;2.10;;;23.60;23.90;;;;;;6039434;23;20438;-69
2021/01/22 11:05:09;;;;;;;3.10;1.90;;;23.90;23.20;;;;;;6038927;23;20399;-68
2021/01/22 11:07:36;;;;;;;3.70;2.20;;;24.10;23.30;;;;;;6039413;23;20782;-68
2021/01/22 11:10:04;;;;;;;9.17;3.00;;;24.80;23.60;;;;;;6039317;23;20722;-68
2021/01/22 11:12:31;;;;;;;5.70;3.10;;;25.20;22.90;;;;;;6041130;23;20399;-68
2021/01/22 11:14:58;;;;;;;3.90;2.40;;;25.50;22.60;;;;;;6040361;23;20409;-68
2021/01/22 11:17:25;;;;;;;4.50;2.60;;;25.90;21.80;;;;;;6040997;23;20403;-69
2021/01/22 11:19:52;;;;;;;6.47;3.20;;;26.20;21.80;;;;;;6040792;23;20405;-69
2021/01/22 11:22:19;;;;;;;9.73;7.37;;;27.10;22.10;;;;;;6040968;23;20772;-69
2021/01/22 11:24:45;;;;;;;4.40;3.10;;;27.80;21.20;;;;;;6040449;23;20413;-70
2021/01/22 11:27:12;;;;;;;4.97;2.63;;;27.60;20.50;;;;;;6040579;23;20485;-69
2021/01/22 11:29:39;;;;;;;4.93;2.57;;;26.90;20.60;;;;;;6040505;23;20734;-69
2021/01/22 11:32:06;;;;;;;3.00;1.77;;;25.80;21.30;;;;;;6040586;23;20411;-68
2021/01/22 11:34:33;;;;;;;5.17;1.80;;;25.20;21.90;;;;;;6039860;23;20403;-68
2021/01/22 11:37:01;;;;;;;5.23;2.00;;;24.90;22.70;;;;;;6040655;23;20407;-69
2021/01/22 11:39:28;;;;;;;3.57;2.00;;;25.30;23.10;;;;;;6040736;23;20410;-69
2021/01/22 11:41:55;;;;;;;5.03;1.50;;;25.90;22.50;;;;;;6040792;23;20570;-69
2021/01/22 11:44:21;;;;;;;3.20;1.57;;;26.50;21.00;;;;;;6040390;23;20807;-69
2021/01/22 11:46:48;;;;;;;5.27;2.00;;;26.60;20.30;;;;;;6040246;23;20403;-68
2021/01/22 11:49:14;;;;;;;3.13;1.80;;;26.50;20.80;;;;;;6040430;23;20469;-68
2021/01/22 11:51:41;;;;;;;2.73;1.90;;;26.70;20.90;;;;;;6040770;23;20442;-67
2021/01/22 11:54:08;;;;;;;7.53;1.93;;;26.20;20.90;;;;;;6040475;23;20403;-68
2021/01/22 11:56:35;;;;;;;3.97;2.80;;;25.30;21.00;;;;;;6040275;23;20407;-67
2021/01/22 11:59:02;;;;;;;6.47;2.53;;;24.40;22.10;;;;;;6039828;23;20845;-68
2021/01/22 12:01:28;;;;;;;5.50;3.50;;;23.80;23.00;;;;;;6040327;23;20431;-67
2021/01/22 12:03:58;;;;;;;4.70;3.53;;;23.50;23.20;;;;;;6040204;23;20446;-67
2021/01/22 12:06:25;;;;;;;3.80;3.30;;;23.30;23.70;;;;;;6040403;23;20526;-69
2021/01/22 12:08:51;;;;;;;3.87;3.00;;;23.40;23.70;;;;;;6040423;23;20426;-68
2021/01/22 12:11:19;;;;;;;4.40;2.13;;;23.60;23.20;;;;;;6040624;23;20403;-68
2021/01/22 12:13:45;;;;;;;3.37;2.30;;;24.00;23.00;;;;;;6039854;23;20931;-69
2021/01/22 12:16:12;;;;;;;3.20;2.10;;;24.70;23.00;;;;;;6040177;23;20403;-68
2021/01/22 12:18:39;;;;;;;3.50;2.27;;;25.40;22.50;;;;;;6039771;23;20411;-69
2021/01/22 12:21:06;;;;;;;2.73;2.33;;;26.00;21.50;;;;;;6040579;23;20443;-68
2021/01/22 12:23:33;;;;;;;2.83;1.90;;;26.30;21.10;;;;;;6039590;23;20502;-68
2021/01/22 12:26:01;;;;;;;5.50;1.90;;;26.90;20.90;;;;;;6040530;23;20712;-68
2021/01/22 12:28:28;;;;;;;6.20;2.67;;;27.00;20.70;;;;;;6039847;23;20407;-68
2021/01/22 12:30:55;;;;;;;3.50;1.90;;;27.50;20.30;;;;;;6040530;23;20406;-68
2021/01/22 12:33:21;;;;;;;3.60;2.13;;;28.20;20.40;;;;;;6040052;23;20434;-68
2021/01/22 12:35:49;;;;;;;3.10;2.10;;;28.90;19.90;;;;;;6040133;23;20407;-69
2021/01/22 12:38:16;;;;;;;5.70;1.90;;;28.80;18.80;;;;;;6039453;23;20423;-69
2021/01/22 12:40:43;;;;;;;3.00;1.90;;;28.90;19.30;;;;;;6040066;23;20403;-70
2021/01/22 12:43:09;;;;;;;7.00;2.50;;;29.40;18.80;;;;;;6040003;23;20446;-69
2021/01/22 12:45:37;;;;;;;3.07;2.07;;;30.10;18.10;;;;;;6036601;23;20466;-68
2021/01/22 12:48:04;;;;;;;3.97;1.90;;;30.20;18.00;;;;;;6039318;23;20398;-68
2021/01/22 12:50:30;;;;;;;6.80;2.27;;;29.40;17.90;;;;;;6037197;23;20399;-70
2021/01/22 12:52:57;;;;;;;4.60;2.70;;;28.20;18.20;;;;;;6038210;23;20406;-68
2021/01/22 12:55:23;;;;;;;5.73;2.63;;;27.30;19.60;;;;;;6037944;23;20419;-68
2021/01/22 12:57:50;;;;;;;5.60;2.77;;;26.70;19.70;;;;;;6038588;23;20454;-69
2021/01/22 13:00:17;;;;;;;4.30;2.30;;;26.50;20.30;;;;;;6039084;23;20812;-68
2021/01/22 13:02:44;;;;;;;9.00;2.50;;;26.20;20.50;;;;;;6038941;23;20446;-68
2021/01/22 13:05:12;;;;;;;3.60;1.87;;;25.60;20.80;;;;;;6038840;23;20410;-68
2021/01/22 13:07:39;;;;;;;4.23;2.33;;;24.60;21.30;;;;;;6039283;23;20770;-69
2021/01/22 13:10:07;;;;;;;3.83;2.57;;;23.50;21.70;;;;;;6039132;23;20414;-68
2021/01/22 13:12:34;;;;;;;3.93;2.60;;;22.70;22.40;;;;;;6039205;23;20769;-68
2021/01/22 13:15:00;;;;;;;4.17;2.43;;;22.10;23.60;;;;;;6038975;23;20997;-68